Latest Weather Observations for Shay Gap

IDW60801

Issued at 8:32 am WST Tuesday 7 July 2015 (issued every 30 minutes, with the page automatically refreshed every 10 minutes)

About weather observations | Map of weather stations | Latest weather observations for WA | Other Formats
Station Details ID: 504045 Name: SHAY GAP Lat: -20.43 Lon: 120.13 Height: 173.83 m
Data from the previous 72 hours. | See also: Recent months for locations in Western Australia
Date/Time
WST
Temp
°C
App
Temp
°C
Dew
Point
Rel
Hum
%
Delta-T
°C
Wind Press
QNH
hPa
Press
MSL
hPa
Rain
since 9 am
mm
Dir
 
Spd
km/h
Gust
km/h
Spd
kts
Gust
kts
07/08:30am 18.4 11.4 -3.7 22 9.0 SE 24 32 13 17 1017.6 1017.1 0.0
07/08:00am 16.8 10.6 -3.3 25 8.1 SSE 20 26 11 14 1017.3 1016.8 0.0
07/07:30am 13.9 8.3 -2.9 31 6.6 SSE 17 19 9 10 1017.0 1016.5 0.0
07/07:00am 11.9 5.9 -3.1 35 5.8 SE 19 19 10 10 1016.4 1016.0 0.0
07/06:30am 12.0 6.0 -3.0 35 5.8 SSE 19 22 10 12 1016.1 1015.7 0.0
07/06:00am 12.3 6.3 -3.1 34 6.0 SSE 19 20 10 11 1016.0 1015.6 0.0
07/05:30am 12.9 6.9 -3.0 33 6.2 SSE 19 20 10 11 1015.8 1015.4 0.0
07/05:00am 12.8 6.8 -3.0 33 6.2 SSE 19 20 10 11 1015.7 1015.3 0.0
07/04:30am 11.5 6.3 -2.7 37 5.5 SSE 15 17 8 9 1015.7 1015.3 0.0
07/04:00am 11.9 6.3 -2.7 36 5.7 SSE 17 19 9 10 1015.6 1015.2 0.0
07/03:30am 12.0 6.4 -3.0 35 5.8 SSE 17 19 9 10 1015.6 1015.2 0.0
07/03:00am 12.6 7.3 -3.2 33 6.1 SSE 15 17 8 9 1015.8 1015.4 0.0
07/02:30am 14.8 9.2 -3.0 29 7.1 SE 17 20 9 11 1015.7 1015.3 0.0
07/02:00am 12.7 7.5 -3.1 33 6.1 SSE 15 17 8 9 1015.9 1015.5 0.0
07/01:30am 12.7 7.5 -3.1 33 6.1 SSE 15 15 8 8 1016.1 1015.7 0.0
07/01:00am 13.5 8.2 -3.3 31 6.6 SSE 15 19 8 10 1016.2 1015.8 0.0
07/12:30am 15.6 9.6 -3.3 27 7.5 SE 19 20 10 11 1016.4 1016.0 0.0
07/12:00am 13.1 8.2 -3.2 32 6.3 SE 13 15 7 8 1016.5 1016.1 0.0
 
Date/Time
WST
Temp
°C
App
Temp
°C
Dew
Point
Rel
Hum
%
Delta-T
°C
Wind Press
QNH
hPa
Press
MSL
hPa
Rain
since 9 am
mm
Dir
 
Spd
km/h
Gust
km/h
Spd
kts
Gust
kts
06/11:30pm 14.2 9.3 -3.1 30 6.8 SSE 13 13 7 7 1016.5 1016.1 0.0
06/11:00pm 14.3 9.4 -3.0 30 6.8 SSE 13 13 7 7 1016.8 1016.3 0.0
06/10:30pm 14.4 9.6 -2.9 30 6.9 SSE 13 15 7 8 1017.0 1016.5 0.0
06/10:00pm 15.9 11.0 -3.6 26 7.7 SSE 13 13 7 7 1017.2 1016.7 0.0
06/09:30pm 17.1 11.7 -4.2 23 8.5 SSE 15 15 8 8 1017.2 1016.7 0.0
06/09:00pm 16.5 11.5 -4.1 24 8.1 SSE 13 13 7 7 1017.0 1016.5 0.0
06/08:30pm 17.5 12.5 -4.4 22 8.7 SSE 13 15 7 8 1017.0 1016.5 0.0
06/08:00pm 19.5 14.8 -5.4 18 9.9 SSE 11 11 6 6 1016.8 1016.3 0.0
06/07:30pm 19.5 15.2 -4.7 19 9.8 SSE 9 11 5 6 1016.6 1016.2 0.0
06/07:00pm 19.7 15.1 -4.5 19 9.8 SE 11 11 6 6 1016.4 1016.0 0.0
06/06:30pm 20.0 15.4 -4.3 19 9.9 SE 11 13 6 7 1016.0 1015.6 0.0
06/06:00pm 21.0 16.3 -5.0 17 10.6 SE 11 13 6 7 1015.8 1015.4 0.0
06/05:30pm 23.0 17.8 -5.9 14 11.8 SE 13 15 7 8 1015.6 1015.2 0.0
06/05:00pm 25.5 20.6 -7.1 11 13.3 ESE 11 15 6 8 1015.4 1015.0 0.0
06/04:30pm 26.5 20.8 -7.6 10 13.9 E 15 22 8 12 1015.2 1014.8 0.0
06/04:00pm 26.6 21.7 -7.5 10 14.0 ESE 11 17 6 9 1015.2 1014.8 0.0
06/03:30pm 27.3 21.7 -6.9 10 14.3 E 15 20 8 11 1015.1 1014.7 0.0
06/03:00pm 27.6 21.2 -6.7 10 14.4 ENE 19 41 10 22 1015.0 1014.6 0.0
06/02:30pm 27.0 20.0 -7.2 10 14.1 E 22 33 12 18 1015.3 1014.9 0.0
06/02:00pm 27.1 20.1 -7.1 10 14.2 ESE 22 37 12 20 1015.4 1015.0 0.0
06/01:30pm 26.9 19.3 -6.0 11 13.9 SE 26 35 14 19 1015.7 1015.3 0.0
06/01:00pm 26.4 19.6 -5.3 12 13.5 ESE 22 32 12 17 1016.1 1015.7 0.0
06/12:30pm 25.9 18.3 -5.6 12 13.3 ESE 26 35 14 19 1016.5 1016.1 0.0
06/12:00pm 25.7 17.8 -4.7 13 13.0 ESE 28 37 15 20 1017.1 1016.6 0.0
06/11:30am 25.1 16.9 -4.2 14 12.6 ESE 30 44 16 24 1017.6 1017.1 0.0
06/11:00am 24.7 18.2 -2.8 16 12.1 ESE 22 32 12 17 1018.0 1017.5 0.0
06/10:30am 23.6 16.7 -2.8 17 11.5 ESE 24 32 13 17 1018.5 1018.0 0.0
06/10:00am 22.0 16.3 -0.7 22 10.1 SE 19 24 10 13 1018.9 1018.4 0.0
06/09:30am 20.4 14.5 -0.8 24 9.3 SE 20 26 11 14 1018.8 1018.3 0.0
06/09:00am 19.3 13.1 -0.1 27 8.6 SE 22 26 12 14 1018.8 1018.3 0.0
06/08:30am 17.8 11.6 0.0 30 7.8 SE 22 32 12 17 1018.7 1018.2 0.0
06/08:00am 16.5 10.7 -0.2 32 7.2 SE 20 26 11 14 1018.4 1017.9 0.0
06/07:30am 15.5 9.7 -0.3 34 6.7 SE 20 26 11 14 1018.1 1017.6 0.0
06/07:00am 13.2 8.4 0.3 41 5.4 SE 15 20 8 11 1017.9 1017.4 0.0
06/06:30am 11.0 6.1 -0.2 46 4.6 SE 15 17 8 9 1017.6 1017.1 0.0
06/06:00am 10.9 6.0 -0.5 45 4.6 SSE 15 15 8 8 1017.3 1016.8 0.0
06/05:30am 11.4 6.4 -1.0 42 5.0 SSE 15 17 8 9 1017.1 1016.6 0.0
06/05:00am 13.4 7.6 -1.3 36 6.0 SE 19 20 10 11 1017.1 1016.6 0.0
06/04:30am 14.4 8.5 -0.8 35 6.3 SE 20 26 11 14 1017.1 1016.6 0.0
06/04:00am 11.6 7.0 -1.2 41 5.1 SSE 13 15 7 8 1017.1 1016.6 0.0
06/03:30am 12.0 7.0 -1.2 40 5.3 SE 15 17 8 9 1017.0 1016.5 0.0
06/03:00am 12.0 7.3 -1.5 39 5.4 SSE 13 15 7 8 1017.1 1016.6 0.0
06/02:30am 12.7 8.0 -2.0 36 5.9 SE 13 17 7 9 1017.1 1016.6 0.0
06/02:00am 14.7 9.3 -1.4 33 6.6 SE 17 19 9 10 1017.3 1016.8 0.0
06/01:30am 13.1 8.1 -1.2 37 5.8 SSE 15 17 8 9 1017.6 1017.1 0.0
06/01:00am 13.0 8.0 -1.3 37 5.8 SSE 15 17 8 9 1017.8 1017.3 0.0
06/12:30am 15.0 9.6 -1.5 32 6.8 SE 17 20 9 11 1017.9 1017.4 0.0
06/12:00am 13.9 9.3 -0.9 36 6.1 SE 13 15 7 8 1017.9 1017.4 0.0
 
Date/Time
WST
Temp
°C
App
Temp
°C
Dew
Point
Rel
Hum
%
Delta-T
°C
Wind Press
QNH
hPa
Press
MSL
hPa
Rain
since 9 am
mm
Dir
 
Spd
km/h
Gust
km/h
Spd
kts
Gust
kts
05/11:30pm 14.1 9.5 -0.7 36 6.2 SE 13 15 7 8 1017.9 1017.4 0.0
05/11:00pm 14.1 9.5 -1.1 35 6.3 SE 13 15 7 8 1017.9 1017.4 0.0
05/10:30pm 15.4 10.8 -1.2 32 6.9 SE 13 15 7 8 1017.8 1017.3 0.0
05/10:00pm 15.8 11.5 -1.3 31 7.1 SE 11 13 6 7 1017.8 1017.3 0.0
05/09:30pm 16.1 11.4 -1.5 30 7.3 SE 13 15 7 8 1017.7 1017.2 0.0
05/09:00pm 16.2 11.6 -0.9 31 7.2 SE 13 15 7 8 1017.8 1017.3 0.0
05/08:30pm 17.7 13.0 -1.5 27 8.1 SSE 13 15 7 8 1017.9 1017.4 0.0
05/08:00pm 18.4 13.4 -1.4 26 8.4 SSE 15 17 8 9 1017.9 1017.4 0.0
05/07:30pm 19.3 14.9 -2.3 23 9.1 SSE 11 13 6 7 1017.5 1017.0 0.0
05/07:00pm 19.6 15.3 -1.5 24 9.1 SSE 11 13 6 7 1017.4 1016.9 0.0
05/06:30pm 20.2 16.3 -1.6 23 9.4 SSE 9 11 5 6 1017.2 1016.7 0.0
05/06:00pm 20.9 16.6 -1.6 22 9.8 SSE 11 15 6 8 1017.0 1016.5 0.0
05/05:30pm 23.1 17.8 -3.3 17 11.3 SE 15 19 8 10 1016.8 1016.3 0.0
05/05:00pm 25.3 19.7 -3.2 15 12.5 SE 17 20 9 11 1016.5 1016.1 0.0
05/04:30pm 26.2 20.2 -3.4 14 13.0 SE 19 26 10 14 1016.3 1015.9 0.0
05/04:00pm 26.7 20.6 -4.0 13 13.4 SSE 19 28 10 15 1016.2 1015.8 0.0
05/03:30pm 27.0 20.9 -3.7 13 13.5 ESE 19 33 10 18 1016.3 1015.9 0.0
05/03:00pm 26.5 20.8 -4.1 13 13.3 SE 17 24 9 13 1016.5 1016.1 0.0
05/02:30pm 26.7 20.0 -4.0 13 13.4 ESE 22 32 12 17 1016.6 1016.2 0.0
05/02:00pm 26.5 20.2 -4.1 13 13.3 ESE 20 30 11 16 1017.0 1016.5 0.0
05/01:30pm 26.8 20.2 -2.9 14 13.3 ESE 22 32 12 17 1017.2 1016.7 0.0
05/01:00pm 26.4 19.4 -3.2 14 13.1 ESE 24 39 13 21 1017.6 1017.1 0.0
05/12:30pm 25.7 19.3 -2.0 16 12.5 E 22 39 12 21 1018.2 1017.7 0.0
05/12:00pm 25.3 17.3 -2.3 16 12.3 ESE 30 41 16 22 1018.8 1018.3 0.0
05/11:30am 25.3 17.0 -1.5 17 12.1 ESE 32 50 17 27 1019.2 1018.7 0.0
05/11:17am 24.5 17.1 -0.6 19 11.5 E 28 46 15 25 1019.5 1019.0 0.0
05/11:00am 24.7 18.0 -1.2 18 11.7 ESE 24 37 13 20 1019.7 1019.2 0.0
05/10:30am 23.8 18.0 -1.2 19 11.2 ESE 19 26 10 14 1020.2 1019.8 0.0
05/10:00am 22.5 16.7 -1.6 20 10.6 E 19 26 10 14 1020.4 1020.0 0.0
05/09:30am 21.2 15.4 -1.3 22 9.9 ESE 19 26 10 14 1020.7 1020.3 0.0
05/09:00am 19.5 13.8 -0.5 26 8.8 ESE 19 24 10 13 1020.8 1020.4 0.0
05/08:30am 18.0 12.4 -0.3 29 8.0 SE 19 26 10 14 1020.6 1020.2 0.0
05/08:00am 16.8 11.0 0.0 32 7.3 SE 20 28 11 15 1020.4 1020.0 0.0
05/07:30am 15.5 9.9 0.1 35 6.6 SE 19 22 10 12 1020.0 1019.6 0.0
05/07:00am 14.1 8.3 0.0 38 5.9 SE 20 26 11 14 1019.6 1019.1 0.0
05/06:30am 13.2 7.7 0.3 41 5.4 SE 19 20 10 11 1019.2 1018.7 0.0
05/06:00am 13.9 8.3 -0.2 38 5.9 SE 19 20 10 11 1018.8 1018.3 0.0
05/05:30am 14.5 8.9 0.0 37 6.2 SE 19 22 10 12 1018.7 1018.2 0.0
05/05:00am 14.1 8.9 0.4 39 5.8 SE 17 20 9 11 1018.6 1018.1 0.0
05/04:30am 11.3 6.5 0.1 46 4.6 SE 15 17 8 9 1018.6 1018.1 0.0
05/04:00am 11.8 7.0 0.0 44 4.9 SE 15 17 8 9 1018.5 1018.0 0.0
05/03:30am 11.9 7.4 -0.3 43 5.0 SSE 13 15 7 8 1018.4 1017.9 0.0
05/03:00am 12.5 8.4 -0.4 41 5.3 SSE 11 13 6 7 1018.5 1018.0 0.0
05/02:30am 14.4 9.1 -0.8 35 6.3 SE 17 20 9 11 1018.4 1017.9 0.0
05/02:00am 13.3 8.4 -0.7 38 5.8 SE 15 17 8 9 1018.4 1017.9 0.0
05/01:30am 13.0 8.5 -0.6 39 5.6 SSE 13 15 7 8 1018.5 1018.0 0.0
05/01:00am 13.9 9.4 -0.5 37 6.0 SSE 13 17 7 9 1018.6 1018.1 0.0
05/12:30am 14.3 9.3 -0.9 35 6.3 SE 15 15 8 8 1018.5 1018.0 0.0
05/12:00am 15.1 9.7 -1.0 33 6.7 SE 17 17 9 9 1018.6 1018.1 0.0
 
Date/Time
WST
Temp
°C
App
Temp
°C
Dew
Point
Rel
Hum
%
Delta-T
°C
Wind Press
QNH
hPa
Press
MSL
hPa
Rain
since 9 am
mm
Dir
 
Spd
km/h
Gust
km/h
Spd
kts
Gust
kts
04/11:30pm 16.1 10.8 -0.6 32 7.1 SE 17 20 9 11 1018.7 1018.2 0.0
04/11:00pm 16.5 11.6 -0.7 31 7.3 SE 15 19 8 10 1018.7 1018.2 0.0
04/10:30pm 15.9 10.3 -0.3 33 6.9 SE 19 20 10 11 1018.8 1018.3 0.0
04/10:00pm 16.0 11.1 -0.2 33 6.9 SE 15 15 8 8 1019.0 1018.5 0.0
04/09:30pm 17.3 12.0 -0.4 30 7.6 SE 17 19 9 10 1019.0 1018.5 0.0
04/09:00pm 17.0 11.7 -0.7 30 7.6 SE 17 17 9 9 1018.8 1018.3 0.0
04/08:30pm 18.4 13.1 -0.4 28 8.2 SSE 17 20 9 11 1018.7 1018.2 0.0
04/08:00pm 18.0 12.7 -0.8 28 8.1 SSE 17 17 9 9 1018.6 1018.1 0.0
04/07:30pm 19.0 14.4 -0.9 26 8.6 SE 13 15 7 8 1018.3 1017.8 0.0
04/07:00pm 19.5 14.5 -1.0 25 8.9 SSE 15 17 8 9 1018.0 1017.5 0.0
04/06:30pm 19.6 15.0 -0.9 25 8.9 SE 13 13 7 7 1017.8 1017.3 0.0
04/06:00pm 21.1 16.5 -1.4 22 9.8 SE 13 15 7 8 1017.5 1017.0 0.0
04/05:30pm 23.7 18.7 -1.3 19 11.2 SE 15 17 8 9 1017.1 1016.6 0.0
04/05:00pm 25.8 19.9 -1.9 16 12.5 SE 19 22 10 12 1017.1 1016.6 0.0
04/04:30pm 26.8 21.4 -1.1 16 12.9 SE 17 24 9 13 1017.0 1016.5 0.0
04/04:00pm 27.0 21.7 -0.9 16 12.9 SE 17 26 9 14 1017.0 1016.5 0.0
04/03:30pm 27.2 22.3 -0.8 16 13.0 SE 15 22 8 12 1016.9 1016.4 0.0
04/03:00pm 27.4 22.2 0.2 17 12.9 ESE 17 24 9 13 1016.9 1016.4 0.0
04/02:30pm 26.9 21.3 -0.2 17 12.7 SSE 19 24 10 13 1017.1 1016.6 0.0
04/02:00pm 27.5 22.7 0.3 17 12.9 SE 15 24 8 13 1017.3 1016.8 0.0
04/01:30pm 27.1 21.6 0.8 18 12.6 SE 19 30 10 16 1017.6 1017.1 0.0
04/01:00pm 26.8 20.7 0.5 18 12.5 ESE 22 33 12 18 1018.0 1017.5 0.0
04/12:30pm 26.5 20.0 0.3 18 12.4 ESE 24 35 13 19 1018.5 1018.0 0.0
04/12:00pm 26.3 19.0 0.1 18 12.3 SE 28 39 15 21 1019.2 1018.7 0.0
04/11:30am 25.4 17.4 0.1 19 11.8 ESE 32 41 17 22 1019.6 1019.1 0.0
04/11:00am 24.9 17.3 0.4 20 11.4 ESE 30 41 16 22 1020.0 1019.6 0.0
04/10:30am 24.1 16.5 0.4 21 11.0 ESE 30 39 16 21 1020.3 1019.9 0.0
04/10:00am 23.1 16.3 0.9 23 10.3 SE 26 32 14 17 1020.6 1020.2 0.0
04/09:30am 21.9 14.7 0.4 24 9.8 ESE 28 35 15 19 1020.7 1020.3 0.0
04/09:00am 20.7 14.2 0.5 26 9.1 SE 24 30 13 16 1020.7 1020.3 0.0

Other Formats:

Comma delimited format used in spreadsheet applications
http://www.bom.gov.au/fwo/IDW60801/IDW60801.99311.axf

JavaScript Object Notation format (JSON) in row-major order
http://www.bom.gov.au/fwo/IDW60801/IDW60801.99311.json